Marble Bar, Australia
Current Conditions -  °F | °C
As of 12:30 PM on Sunday 26 Oct 2014 (Local Time) from YPPD Reporting Station
Clear Clear  
Wind Chill: 108°   Ceiling: Unl
Heat Index: 108°   Visibility: 6mi
Dew Point: 27°   Wind: 10mph
Humidity: 6%   Direction: 130°SE
Pressure: 29.83"   Gusts: NA
Location:  21.17°S, 119.74°E
Report Text: YPPD 260430Z 13009KT CAVOK 42/M03 Q1010
Loading
Personal Weather Stations






























Interactive Weather Map
Tropical Storm Tracking
New forecast layout! Learn more

10-Day Weather Forecast

Advertisements
Track Severe Weather on mobile